• Join FlightAware (Why Join?)
  • Login
  • US Flag 
10:43PM EDT


 

Airport Tracker/Info


-or-


 

Live Flight TrackerFlight Track Log ✈ ASQ5975 ✈ 04-Apr-2014 ✈ KORD - KCLE

Flight Track Log - Related Links

Times and Time Zones

All times are in EDT time to prevent confusion due to time zone crossing. See the ASQ5975 flight status page for this flight to view local times or setup timezone preferences in your user account.

Time Position Orientation Groundspeed Altitude Reporting Facility
EDT Latitude Longitude Course Direction KTS MPH feet Rate Location/Type
11:26AM 41.9667 -87.9333 90° East 160 184 2,100  Level Chicago TRACON
11:27AM 42.0167 -87.9333 360° North 253 291 4,100 2,400 Climbing Chicago TRACON
11:28AM 42.0500 -87.8333 66° East 306 352 6,900 2,640 Climbing Chicago TRACON
11:30AM 42.0551 -87.3336 78° East  Level FlightAware Approximate
11:30AM 42.0628 -87.7097 82° East 292 336 10,400  Level Chicago Center
11:31AM 42.0773 -87.1898 78° East  Level FlightAware Approximate
11:31AM 42.0722 -87.6008 83° East 291 335 12,500  Level Chicago Center
11:32AM 42.1000 -87.0466 90° East  Level FlightAware Approximate
11:32AM 42.0817 -87.4636 85° East 341 392 13,700  Level Chicago Center
11:33AM 42.0844 -87.3222 88° East 375 432 14,800 1,140 Climbing Chicago Center
11:34AM 42.0856 -87.1719 89° East 399 459 16,100 1,620 Climbing Chicago Center
11:35AM 42.0872 -87.0247 89° East 403 464 18,200 1,860 Climbing Chicago Center
11:36AM 42.0881 -86.8742 90° East 404 465 20,000 1,620 Climbing Chicago Center
11:37AM 42.0872 -86.7278 90° East 396 456 21,600 1,260 Climbing Chicago Center
11:38AM 42.0878 -86.5783 90° East 396 456 22,700 840 Climbing Chicago Center
11:39AM 42.0878 -86.3922 90° East 407 468 23,400 840 Climbing Chicago Center
11:40AM 42.0869 -86.2381 90° East 409 471 24,500 780 Climbing Chicago Center
11:41AM 42.0856 -86.0753 91° East 431 496 25,000 240 Climbing Chicago Center
11:42AM 42.0853 -85.9178 90° East 451 519 25,000  Level Chicago Center
11:43AM 42.0842 -85.7075 90° East 468 539 25,000  Level Chicago Center
11:44AM 42.0836 -85.5306 90° East 475 547 25,000  Level Chicago Center
11:45AM 42.0825 -85.3531 90° East 477 549 25,000  Level Chicago Center
11:46AM 42.0800 -85.1750 91° East 477 549 25,000  Level Chicago Center
11:47AM 42.0783 -84.9967 91° East 478 550 25,000  Level Chicago Center
11:48AM 42.0756 -84.8150 91° East 481 554 25,000  Level Chicago Center
11:49AM 42.0728 -84.5953 91° East 486 559 25,000  Level Chicago Center
11:50AM 42.0706 -84.4947 92° East 488 562 25,000  Level Cleveland Center
11:51AM 42.0661 -84.2744 91° East 489 563 25,000  Level Cleveland Center
11:52AM 42.0631 -84.0911 91° East 489 563 25,000  Level Cleveland Center
11:53AM 42.0586 -83.9089 92° East 489 563 25,000  Level Cleveland Center
11:54AM 42.0544 -83.7258 92° East 490 564 25,000  Level Cleveland Center
11:55AM 42.0508 -83.5519 92° East 485 558 25,000  Level Cleveland Center
11:56AM 42.0381 -83.3528 95° East 459 528 25,000 -300 Level Cleveland Center
11:57AM 42.0231 -83.1911 97° East 437 503 24,500 -1,500 Descending Cleveland Center
11:58AM 42.0075 -83.0386 98° East 421 484 22,000 -2,580 Descending Cleveland Center
11:59AM 41.9936 -82.9014 98° East 418 481 19,700 -2,580 Descending Cleveland Center
11:59AM 41.9928 -82.8806 93° East 425 489 19,300 -3,120 Descending Cleveland Center
12:00PM 41.9794 -82.7694 99° East 428 493 17,200 -2,760 Descending Cleveland Center
12:00PM 41.9769 -82.7197 94° East 432 497 16,500 -2,340 Descending Cleveland Center
12:01PM 41.9656 -82.6119 98° East 429 494 14,900 -2,280 Descending Cleveland Center
12:01PM 41.9611 -82.5686 98° East 415 478 14,200 -2,340 Descending Cleveland Center
12:02PM 41.9286 -82.4533 111° Southeast 379 436 12,300 -2,460 Descending Cleveland Center
12:02PM 41.9150 -82.4089 112° Southeast 385 443 11,700 -1,740 Descending Cleveland Center
12:03PM 41.8867 -82.3222 114° Southeast 381 438 10,600 -1,500 Descending Cleveland Center
12:03PM 41.8731 -82.2764 112° Southeast 385 443 10,200 -660 Descending Cleveland Center
12:04PM 41.8414 -82.1797 114° Southeast 381 438 9,900 -240 Descending Cleveland Center
12:04PM 41.8306 -82.1500 116° Southeast 379 436 10,000  Climbing Cleveland Center
12:05PM 41.7756 -82.0983 145° Southeast 315 362 9,900  Descending Cleveland Center
12:05PM 41.7553 -82.0725 136° Southeast 319 367 10,000 -360 Climbing Cleveland Center
12:06PM 41.7225 -82.0364 141° Southeast 242 278 9,600 -1,080 Descending Cleveland Center
12:07PM 41.7022 -82.0139 140° Southeast 255 293 8,900 -1,620 Descending Cleveland Center
12:07PM 41.6653 -81.9958 160° South 221 254 8,000 -1,380 Descending Cleveland Center
12:08PM 41.6428 -81.9783 150° Southeast 238 274 7,500 -1,020 Descending Cleveland Center
12:08PM 41.6125 -81.9564 152° Southeast 221 254 7,000 -600 Descending Cleveland Center
12:09PM 41.5997 -81.9189 114° Southeast 245 282 6,900 -180 Descending Cleveland Center
12:09PM 41.5875 -81.8850 116° Southeast 247 284 6,900 60 Level Cleveland Center
12:10PM 41.5772 -81.8394 107° East 236 272 7,000  Climbing Cleveland Center
12:10PM 41.5869 -81.7983 72° East 228 262 6,900 -600 Descending Cleveland Center
12:11PM 41.5950 -81.7550 76° East 237 273 6,400 -1,020 Descending Cleveland Center
12:11PM 41.6036 -81.7086 76° East 233 268 5,800 -1,020 Descending Cleveland Center
12:12PM 41.5903 -81.6789 121° Southeast 222 255 5,400 -1,020 Descending Cleveland Center
12:12PM 41.5783 -81.6628 135° Southeast 192 221 5,100 -1,020 Descending Cleveland Center
12:13PM 41.5500 -81.6625 180° South 188 216 4,400 -840 Descending Cleveland Center
12:13PM 41.5314 -81.6719 201° Southwest 147 169 4,100 -720 Descending Cleveland Center
12:14PM 41.5106 -81.6956 220° Southwest 154 177 3,700 -720 Descending Cleveland Center
12:14PM 41.5053 -81.7067 238° Southwest 136 157 3,500 -780 Descending Cleveland Center
12:15PM 41.4867 -81.7361 230° Southwest 143 165 2,900 -720 Descending Cleveland Center
12:16PM 41.4636 -81.7719 229° Southwest 134 154 2,200 -660 Descending Cleveland Center
12:17PM 41.4431 -81.8053 231° Southwest 121 139 1,600 -660 Descending Cleveland Center
12:18PM 41.4200 -81.8422 230° Southwest 123 142 900 -420 Descending Cleveland Center
12:19PM 41.3969 -81.8767 228° Southwest 124 143 800 -120 Descending Cleveland Center